sensor_id;sensor_type;location;lat;lon;timestamp;temperature;humidity
52643;DHT22;38531;53.296;6.614;2023-04-03T00:00:26;1.20;99.90
52643;DHT22;38531;53.296;6.614;2023-04-03T00:02:51;1.20;99.90
52643;DHT22;38531;53.296;6.614;2023-04-03T00:05:17;1.10;99.90
52643;DHT22;38531;53.296;6.614;2023-04-03T00:07:43;1.10;99.90
52643;DHT22;38531;53.296;6.614;2023-04-03T00:10:09;1.10;99.90
52643;DHT22;38531;53.296;6.614;2023-04-03T00:12:34;1.10;99.90
52643;DHT22;38531;53.296;6.614;2023-04-03T00:15:00;1.10;99.90
52643;DHT22;38531;53.296;6.614;2023-04-03T00:17:26;1.10;99.90
52643;DHT22;38531;53.296;6.614;2023-04-03T00:19:51;1.00;99.90
52643;DHT22;38531;53.296;6.614;2023-04-03T00:22:17;1.00;99.90
52643;DHT22;38531;53.296;6.614;2023-04-03T00:24:42;1.00;99.90
52643;DHT22;38531;53.296;6.614;2023-04-03T00:27:08;1.80;99.90
52643;DHT22;38531;53.296;6.614;2023-04-03T00:29:34;1.00;99.90
52643;DHT22;38531;53.296;6.614;2023-04-03T00:32:00;0.90;99.90
52643;DHT22;38531;53.296;6.614;2023-04-03T00:34:25;0.90;99.90
52643;DHT22;38531;53.296;6.614;2023-04-03T00:36:51;0.90;99.90
52643;DHT22;38531;53.296;6.614;2023-04-03T00:39:17;0.90;99.90
52643;DHT22;38531;53.296;6.614;2023-04-03T00:41:42;0.90;99.90
52643;DHT22;38531;53.296;6.614;2023-04-03T00:46:59;0.90;99.90
52643;DHT22;38531;53.296;6.614;2023-04-03T00:49:26;0.90;99.90
52643;DHT22;38531;53.296;6.614;2023-04-03T00:51:53;0.80;99.90
52643;DHT22;38531;53.296;6.614;2023-04-03T00:54:19;0.80;99.90
52643;DHT22;38531;53.296;6.614;2023-04-03T00:56:45;0.70;99.90
52643;DHT22;38531;53.296;6.614;2023-04-03T00:59:16;0.70;99.90
52643;DHT22;38531;53.296;6.614;2023-04-03T01:01:44;0.60;99.90
52643;DHT22;38531;53.296;6.614;2023-04-03T01:07:04;0.60;99.90
52643;DHT22;38531;53.296;6.614;2023-04-03T01:09:31;0.60;99.90
52643;DHT22;38531;53.296;6.614;2023-04-03T01:12:35;1.00;99.90
52643;DHT22;38531;53.296;6.614;2023-04-03T01:15:08;0.50;99.90
52643;DHT22;38531;53.296;6.614;2023-04-03T01:23:17;0.40;99.90
52643;DHT22;38531;53.296;6.614;2023-04-03T01:25:54;0.30;99.90
52643;DHT22;38531;53.296;6.614;2023-04-03T01:28:27;0.30;99.90
52643;DHT22;38531;53.296;6.614;2023-04-03T01:31:06;0.20;99.90
52643;DHT22;38531;53.296;6.614;2023-04-03T01:33:35;0.20;99.90
52643;DHT22;38531;53.296;6.614;2023-04-03T01:36:01;0.10;99.90
52643;DHT22;38531;53.296;6.614;2023-04-03T01:38:27;0.10;99.90
52643;DHT22;38531;53.296;6.614;2023-04-03T01:40:52;0.10;99.90
52643;DHT22;38531;53.296;6.614;2023-04-03T01:43:18;0.00;99.90
52643;DHT22;38531;53.296;6.614;2023-04-03T01:45:47;0.00;99.90
52643;DHT22;38531;53.296;6.614;2023-04-03T01:48:14;0.00;99.90
52643;DHT22;38531;53.296;6.614;2023-04-03T01:50:40;-0.10;99.90
52643;DHT22;38531;53.296;6.614;2023-04-03T01:53:06;-0.10;99.90
52643;DHT22;38531;53.296;6.614;2023-04-03T01:55:32;-0.10;99.90
52643;DHT22;38531;53.296;6.614;2023-04-03T01:57:58;-0.10;99.90
52643;DHT22;38531;53.296;6.614;2023-04-03T02:00:23;-0.20;99.90
52643;DHT22;38531;53.296;6.614;2023-04-03T02:02:49;-0.20;99.90
52643;DHT22;38531;53.296;6.614;2023-04-03T02:05:15;0.20;99.90
52643;DHT22;38531;53.296;6.614;2023-04-03T02:07:41;0.30;99.90
52643;DHT22;38531;53.296;6.614;2023-04-03T02:10:07;-0.30;99.90
52643;DHT22;38531;53.296;6.614;2023-04-03T02:12:32;-0.20;99.90
52643;DHT22;38531;53.296;6.614;2023-04-03T02:14:58;0.70;99.90
52643;DHT22;38531;53.296;6.614;2023-04-03T02:17:24;-0.30;99.90
52643;DHT22;38531;53.296;6.614;2023-04-03T02:19:50;-0.20;99.90
52643;DHT22;38531;53.296;6.614;2023-04-03T02:22:15;-0.20;99.90
52643;DHT22;38531;53.296;6.614;2023-04-03T02:24:41;-0.20;99.90
52643;DHT22;38531;53.296;6.614;2023-04-03T02:27:07;0.40;99.90
52643;DHT22;38531;53.296;6.614;2023-04-03T02:29:32;-0.30;99.90
52643;DHT22;38531;53.296;6.614;2023-04-03T02:31:58;-0.30;99.90
52643;DHT22;38531;53.296;6.614;2023-04-03T02:34:24;-0.30;99.90
52643;DHT22;38531;53.296;6.614;2023-04-03T02:36:49;-0.30;99.90
52643;DHT22;38531;53.296;6.614;2023-04-03T02:39:16;-0.30;99.90
52643;DHT22;38531;53.296;6.614;2023-04-03T02:41:41;-0.30;99.90
52643;DHT22;38531;53.296;6.614;2023-04-03T02:44:10;-0.40;99.90
52643;DHT22;38531;53.296;6.614;2023-04-03T02:46:35;-0.40;99.90
52643;DHT22;38531;53.296;6.614;2023-04-03T02:49:01;0.20;99.90
52643;DHT22;38531;53.296;6.614;2023-04-03T02:51:27;-0.50;99.90
52643;DHT22;38531;53.296;6.614;2023-04-03T02:53:53;-0.50;99.90
52643;DHT22;38531;53.296;6.614;2023-04-03T02:56:19;-0.50;99.90
52643;DHT22;38531;53.296;6.614;2023-04-03T02:58:45;-0.50;99.90
52643;DHT22;38531;53.296;6.614;2023-04-03T03:01:11;0.20;99.90
52643;DHT22;38531;53.296;6.614;2023-04-03T03:03:37;-0.70;99.90
52643;DHT22;38531;53.296;6.614;2023-04-03T03:06:08;-0.30;99.90
52643;DHT22;38531;53.296;6.614;2023-04-03T03:08:36;0.00;99.90
52643;DHT22;38531;53.296;6.614;2023-04-03T03:11:02;-0.60;99.90
52643;DHT22;38531;53.296;6.614;2023-04-03T03:13:29;-0.60;99.90
52643;DHT22;38531;53.296;6.614;2023-04-03T03:15:54;0.00;99.90
52643;DHT22;38531;53.296;6.614;2023-04-03T03:18:20;-0.60;99.90
52643;DHT22;38531;53.296;6.614;2023-04-03T03:20:46;-0.60;99.90
52643;DHT22;38531;53.296;6.614;2023-04-03T03:23:12;0.50;99.90
52643;DHT22;38531;53.296;6.614;2023-04-03T03:25:38;-0.60;99.90
52643;DHT22;38531;53.296;6.614;2023-04-03T03:28:04;-0.60;99.90
52643;DHT22;38531;53.296;6.614;2023-04-03T03:30:30;-0.60;99.90
52643;DHT22;38531;53.296;6.614;2023-04-03T03:32:56;0.10;99.90
52643;DHT22;38531;53.296;6.614;2023-04-03T03:35:22;-0.60;99.90
52643;DHT22;38531;53.296;6.614;2023-04-03T03:37:47;-0.70;99.90
52643;DHT22;38531;53.296;6.614;2023-04-03T03:40:13;-0.70;99.90
52643;DHT22;38531;53.296;6.614;2023-04-03T03:42:39;-0.60;99.90
52643;DHT22;38531;53.296;6.614;2023-04-03T03:45:06;-0.70;99.90
52643;DHT22;38531;53.296;6.614;2023-04-03T03:47:31;-0.70;99.90
52643;DHT22;38531;53.296;6.614;2023-04-03T03:49:57;-0.70;99.90
52643;DHT22;38531;53.296;6.614;2023-04-03T03:52:23;-0.80;99.90
52643;DHT22;38531;53.296;6.614;2023-04-03T03:54:48;-0.90;99.90
52643;DHT22;38531;53.296;6.614;2023-04-03T03:57:14;-0.90;99.90
52643;DHT22;38531;53.296;6.614;2023-04-03T03:59:40;-1.00;99.90
52643;DHT22;38531;53.296;6.614;2023-04-03T04:02:07;-1.00;99.90
52643;DHT22;38531;53.296;6.614;2023-04-03T04:04:33;-1.00;99.90
52643;DHT22;38531;53.296;6.614;2023-04-03T04:06:59;-1.10;99.90
52643;DHT22;38531;53.296;6.614;2023-04-03T04:09:26;-1.10;99.90
52643;DHT22;38531;53.296;6.614;2023-04-03T04:11:52;-1.00;99.90
52643;DHT22;38531;53.296;6.614;2023-04-03T04:14:17;-1.10;99.90
52643;DHT22;38531;53.296;6.614;2023-04-03T04:16:46;-1.10;99.90
52643;DHT22;38531;53.296;6.614;2023-04-03T04:19:12;-1.10;99.90
52643;DHT22;38531;53.296;6.614;2023-04-03T04:21:37;-1.10;99.90
52643;DHT22;38531;53.296;6.614;2023-04-03T04:24:03;-1.10;99.90
52643;DHT22;38531;53.296;6.614;2023-04-03T04:26:29;-1.10;99.90
52643;DHT22;38531;53.296;6.614;2023-04-03T04:28:55;-1.10;99.90
52643;DHT22;38531;53.296;6.614;2023-04-03T04:31:20;-1.10;99.90
52643;DHT22;38531;53.296;6.614;2023-04-03T04:33:46;-1.10;99.90
52643;DHT22;38531;53.296;6.614;2023-04-03T04:36:12;-0.10;99.90
52643;DHT22;38531;53.296;6.614;2023-04-03T04:38:37;-1.20;99.90
52643;DHT22;38531;53.296;6.614;2023-04-03T04:41:04;-1.20;99.90
52643;DHT22;38531;53.296;6.614;2023-04-03T04:43:31;-1.20;99.90
52643;DHT22;38531;53.296;6.614;2023-04-03T04:46:08;-1.20;99.90
52643;DHT22;38531;53.296;6.614;2023-04-03T04:48:35;-1.20;99.90
52643;DHT22;38531;53.296;6.614;2023-04-03T04:51:01;-1.20;99.90
52643;DHT22;38531;53.296;6.614;2023-04-03T04:53:26;-1.30;99.90
52643;DHT22;38531;53.296;6.614;2023-04-03T04:55:52;-1.30;99.90
52643;DHT22;38531;53.296;6.614;2023-04-03T04:58:19;-0.90;99.90
52643;DHT22;38531;53.296;6.614;2023-04-03T05:00:45;-1.30;99.90
52643;DHT22;38531;53.296;6.614;2023-04-03T05:03:11;-1.40;99.90
52643;DHT22;38531;53.296;6.614;2023-04-03T05:05:36;-1.40;99.90
52643;DHT22;38531;53.296;6.614;2023-04-03T05:08:03;-1.40;99.90
52643;DHT22;38531;53.296;6.614;2023-04-03T05:10:29;-1.50;99.90
52643;DHT22;38531;53.296;6.614;2023-04-03T05:12:55;-1.50;99.90
52643;DHT22;38531;53.296;6.614;2023-04-03T05:15:21;-1.50;99.90
52643;DHT22;38531;53.296;6.614;2023-04-03T05:17:46;-1.50;99.90
52643;DHT22;38531;53.296;6.614;2023-04-03T05:20:12;-1.50;99.90
52643;DHT22;38531;53.296;6.614;2023-04-03T05:22:38;-1.50;99.90
52643;DHT22;38531;53.296;6.614;2023-04-03T05:25:05;-1.30;99.90
52643;DHT22;38531;53.296;6.614;2023-04-03T05:27:30;-1.50;99.90
52643;DHT22;38531;53.296;6.614;2023-04-03T05:29:56;-1.50;99.90
52643;DHT22;38531;53.296;6.614;2023-04-03T05:32:23;-1.50;99.90
52643;DHT22;38531;53.296;6.614;2023-04-03T05:34:49;-1.50;99.90
52643;DHT22;38531;53.296;6.614;2023-04-03T05:37:14;-1.50;99.90
52643;DHT22;38531;53.296;6.614;2023-04-03T05:39:40;-1.50;99.90
52643;DHT22;38531;53.296;6.614;2023-04-03T05:42:09;-1.40;99.90
52643;DHT22;38531;53.296;6.614;2023-04-03T05:44:37;-1.40;99.90
52643;DHT22;38531;53.296;6.614;2023-04-03T05:47:03;-1.40;99.90
52643;DHT22;38531;53.296;6.614;2023-04-03T05:49:29;-1.30;99.90
52643;DHT22;38531;53.296;6.614;2023-04-03T05:51:55;-1.40;99.90
52643;DHT22;38531;53.296;6.614;2023-04-03T05:54:24;-1.30;99.90
52643;DHT22;38531;53.296;6.614;2023-04-03T05:56:50;-0.10;99.90
52643;DHT22;38531;53.296;6.614;2023-04-03T05:59:17;-1.20;99.90
52643;DHT22;38531;53.296;6.614;2023-04-03T06:01:43;-1.20;99.90
52643;DHT22;38531;53.296;6.614;2023-04-03T06:04:08;-1.20;99.90
52643;DHT22;38531;53.296;6.614;2023-04-03T06:06:55;-0.20;99.90
52643;DHT22;38531;53.296;6.614;2023-04-03T06:09:25;-1.00;99.90
52643;DHT22;38531;53.296;6.614;2023-04-03T06:11:52;-1.00;99.90
52643;DHT22;38531;53.296;6.614;2023-04-03T06:14:18;-0.90;99.90
52643;DHT22;38531;53.296;6.614;2023-04-03T06:16:44;-0.30;99.90
52643;DHT22;38531;53.296;6.614;2023-04-03T06:19:11;-0.70;99.90
52643;DHT22;38531;53.296;6.614;2023-04-03T06:21:38;-0.70;99.90
52643;DHT22;38531;53.296;6.614;2023-04-03T06:24:04;0.60;99.90
52643;DHT22;38531;53.296;6.614;2023-04-03T06:26:30;-0.40;99.90
52643;DHT22;38531;53.296;6.614;2023-04-03T06:28:55;0.00;99.90
52643;DHT22;38531;53.296;6.614;2023-04-03T06:31:21;-0.20;99.90
52643;DHT22;38531;53.296;6.614;2023-04-03T06:33:47;0.00;99.90
52643;DHT22;38531;53.296;6.614;2023-04-03T06:36:13;0.10;99.90
52643;DHT22;38531;53.296;6.614;2023-04-03T06:38:39;0.20;99.90
52643;DHT22;38531;53.296;6.614;2023-04-03T06:41:05;0.40;99.90
52643;DHT22;38531;53.296;6.614;2023-04-03T06:43:31;0.50;99.90
52643;DHT22;38531;53.296;6.614;2023-04-03T06:45:57;0.70;99.90
52643;DHT22;38531;53.296;6.614;2023-04-03T06:48:23;0.80;99.90
52643;DHT22;38531;53.296;6.614;2023-04-03T06:50:48;0.90;99.90
52643;DHT22;38531;53.296;6.614;2023-04-03T06:53:14;1.10;99.90
52643;DHT22;38531;53.296;6.614;2023-04-03T06:55:41;1.20;99.90
52643;DHT22;38531;53.296;6.614;2023-04-03T06:58:06;1.40;99.90
52643;DHT22;38531;53.296;6.614;2023-04-03T07:00:32;1.50;99.90
52643;DHT22;38531;53.296;6.614;2023-04-03T07:02:59;1.60;99.90
52643;DHT22;38531;53.296;6.614;2023-04-03T07:05:25;1.80;99.90
52643;DHT22;38531;53.296;6.614;2023-04-03T07:07:51;1.90;99.90
52643;DHT22;38531;53.296;6.614;2023-04-03T07:10:18;2.10;99.90
52643;DHT22;38531;53.296;6.614;2023-04-03T07:12:44;2.20;99.90
52643;DHT22;38531;53.296;6.614;2023-04-03T07:15:10;3.10;99.90
52643;DHT22;38531;53.296;6.614;2023-04-03T07:17:37;2.40;99.90
52643;DHT22;38531;53.296;6.614;2023-04-03T07:20:03;2.50;99.90
52643;DHT22;38531;53.296;6.614;2023-04-03T07:22:30;2.60;99.90
52643;DHT22;38531;53.296;6.614;2023-04-03T07:24:55;3.10;99.90
52643;DHT22;38531;53.296;6.614;2023-04-03T07:27:21;3.00;99.90
52643;DHT22;38531;53.296;6.614;2023-04-03T07:29:47;3.00;99.90
52643;DHT22;38531;53.296;6.614;2023-04-03T07:32:14;3.30;99.90
52643;DHT22;38531;53.296;6.614;2023-04-03T07:34:40;4.40;99.90
52643;DHT22;38531;53.296;6.614;2023-04-03T07:37:06;3.00;99.90
52643;DHT22;38531;53.296;6.614;2023-04-03T07:39:32;3.20;99.90
52643;DHT22;38531;53.296;6.614;2023-04-03T07:41:58;3.60;99.90
52643;DHT22;38531;53.296;6.614;2023-04-03T07:44:24;3.70;99.90
52643;DHT22;38531;53.296;6.614;2023-04-03T07:46:50;3.90;99.90
52643;DHT22;38531;53.296;6.614;2023-04-03T07:49:16;4.00;99.90
52643;DHT22;38531;53.296;6.614;2023-04-03T07:51:44;4.80;99.90
52643;DHT22;38531;53.296;6.614;2023-04-03T07:54:10;4.30;99.90
52643;DHT22;38531;53.296;6.614;2023-04-03T07:56:36;5.50;99.90
52643;DHT22;38531;53.296;6.614;2023-04-03T07:59:02;4.40;99.90
52643;DHT22;38531;53.296;6.614;2023-04-03T08:01:27;4.60;99.90
52643;DHT22;38531;53.296;6.614;2023-04-03T08:03:53;4.70;99.90
52643;DHT22;38531;53.296;6.614;2023-04-03T08:06:19;5.30;99.90
52643;DHT22;38531;53.296;6.614;2023-04-03T08:08:44;4.90;99.90
52643;DHT22;38531;53.296;6.614;2023-04-03T08:11:11;5.00;99.90
52643;DHT22;38531;53.296;6.614;2023-04-03T08:13:37;5.90;99.90
52643;DHT22;38531;53.296;6.614;2023-04-03T08:16:12;5.20;99.90
52643;DHT22;38531;53.296;6.614;2023-04-03T08:18:38;5.30;99.90
52643;DHT22;38531;53.296;6.614;2023-04-03T08:21:09;5.50;99.90
52643;DHT22;38531;53.296;6.614;2023-04-03T08:23:35;6.60;99.90
52643;DHT22;38531;53.296;6.614;2023-04-03T08:26:12;5.60;99.90
52643;DHT22;38531;53.296;6.614;2023-04-03T08:28:38;5.60;99.90
52643;DHT22;38531;53.296;6.614;2023-04-03T08:31:06;6.70;99.90
52643;DHT22;38531;53.296;6.614;2023-04-03T08:33:33;5.90;99.90
52643;DHT22;38531;53.296;6.614;2023-04-03T08:35:59;6.10;99.90
52643;DHT22;38531;53.296;6.614;2023-04-03T08:38:25;6.20;99.90
52643;DHT22;38531;53.296;6.614;2023-04-03T08:41:25;6.70;99.90
52643;DHT22;38531;53.296;6.614;2023-04-03T08:44:25;6.30;99.90
52643;DHT22;38531;53.296;6.614;2023-04-03T08:49:44;6.60;99.90
52643;DHT22;38531;53.296;6.614;2023-04-03T08:52:17;6.70;99.90
52643;DHT22;38531;53.296;6.614;2023-04-03T08:54:50;7.70;99.90
52643;DHT22;38531;53.296;6.614;2023-04-03T08:57:17;6.90;99.90
52643;DHT22;38531;53.296;6.614;2023-04-03T08:59:44;7.50;99.90
52643;DHT22;38531;53.296;6.614;2023-04-03T09:02:25;7.20;99.90
52643;DHT22;38531;53.296;6.614;2023-04-03T09:04:53;7.40;99.90
52643;DHT22;38531;53.296;6.614;2023-04-03T09:07:30;7.50;99.90
52643;DHT22;38531;53.296;6.614;2023-04-03T09:09:59;7.60;99.90
52643;DHT22;38531;53.296;6.614;2023-04-03T09:12:39;8.10;99.90
52643;DHT22;38531;53.296;6.614;2023-04-03T09:15:23;7.60;99.90
52643;DHT22;38531;53.296;6.614;2023-04-03T09:18:05;7.70;99.90
52643;DHT22;38531;53.296;6.614;2023-04-03T09:21:08;7.80;99.90
52643;DHT22;38531;53.296;6.614;2023-04-03T09:23:46;8.70;99.90
52643;DHT22;38531;53.296;6.614;2023-04-03T09:26:14;8.30;99.90
52643;DHT22;38531;53.296;6.614;2023-04-03T09:28:42;8.20;99.80
52643;DHT22;38531;53.296;6.614;2023-04-03T09:31:27;8.30;99.90
52643;DHT22;38531;53.296;6.614;2023-04-03T09:33:58;8.50;99.10
52643;DHT22;38531;53.296;6.614;2023-04-03T09:36:43;9.20;99.90
52643;DHT22;38531;53.296;6.614;2023-04-03T09:39:22;8.70;99.90
52643;DHT22;38531;53.296;6.614;2023-04-03T09:44:37;9.00;99.50
52643;DHT22;38531;53.296;6.614;2023-04-03T09:47:21;9.60;98.70
52643;DHT22;38531;53.296;6.614;2023-04-03T09:49:48;9.30;97.00
52643;DHT22;38531;53.296;6.614;2023-04-03T09:52:24;9.20;95.00
52643;DHT22;38531;53.296;6.614;2023-04-03T09:54:51;9.30;94.90
52643;DHT22;38531;53.296;6.614;2023-04-03T09:57:17;9.50;96.20
52643;DHT22;38531;53.296;6.614;2023-04-03T10:02:37;9.70;97.50
52643;DHT22;38531;53.296;6.614;2023-04-03T10:05:28;9.70;94.70
52643;DHT22;38531;53.296;6.614;2023-04-03T10:10:42;9.80;92.30
52643;DHT22;38531;53.296;6.614;2023-04-03T10:13:12;9.60;93.40
52643;DHT22;38531;53.296;6.614;2023-04-03T10:15:45;9.40;91.10
52643;DHT22;38531;53.296;6.614;2023-04-03T10:18:39;9.60;93.20
52643;DHT22;38531;53.296;6.614;2023-04-03T10:21:32;9.50;92.20
52643;DHT22;38531;53.296;6.614;2023-04-03T10:24:13;9.60;92.60
52643;DHT22;38531;53.296;6.614;2023-04-03T10:26:52;9.80;94.10
52643;DHT22;38531;53.296;6.614;2023-04-03T10:35:37;10.30;90.40
52643;DHT22;38531;53.296;6.614;2023-04-03T10:43:21;10.40;90.50
52643;DHT22;38531;53.296;6.614;2023-04-03T10:46:17;10.40;91.80
52643;DHT22;38531;53.296;6.614;2023-04-03T10:51:31;10.40;85.20
52643;DHT22;38531;53.296;6.614;2023-04-03T10:54:12;10.40;87.10
52643;DHT22;38531;53.296;6.614;2023-04-03T10:57:02;10.40;86.20
52643;DHT22;38531;53.296;6.614;2023-04-03T10:59:37;10.50;86.40
52643;DHT22;38531;53.296;6.614;2023-04-03T11:04:53;10.80;90.20
52643;DHT22;38531;53.296;6.614;2023-04-03T11:07:23;10.90;85.70
52643;DHT22;38531;53.296;6.614;2023-04-03T11:09:56;11.00;89.60
52643;DHT22;38531;53.296;6.614;2023-04-03T11:12:25;11.10;88.30
52643;DHT22;38531;53.296;6.614;2023-04-03T11:14:55;11.20;87.20
52643;DHT22;38531;53.296;6.614;2023-04-03T11:17:33;11.20;83.70
52643;DHT22;38531;53.296;6.614;2023-04-03T11:20:18;11.00;82.30
52643;DHT22;38531;53.296;6.614;2023-04-03T11:22:50;11.00;86.70
52643;DHT22;38531;53.296;6.614;2023-04-03T11:25:21;11.40;81.80
52643;DHT22;38531;53.296;6.614;2023-04-03T11:35:36;11.10;80.30
52643;DHT22;38531;53.296;6.614;2023-04-03T11:38:04;11.10;79.20
52643;DHT22;38531;53.296;6.614;2023-04-03T11:40:35;11.10;77.20
52643;DHT22;38531;53.296;6.614;2023-04-03T11:43:07;11.10;80.20
52643;DHT22;38531;53.296;6.614;2023-04-03T11:45:37;11.00;77.80
52643;DHT22;38531;53.296;6.614;2023-04-03T11:51:01;11.20;77.00
52643;DHT22;38531;53.296;6.614;2023-04-03T11:53:37;11.10;78.30
52643;DHT22;38531;53.296;6.614;2023-04-03T12:01:54;11.10;79.40
52643;DHT22;38531;53.296;6.614;2023-04-03T12:04:26;11.10;77.40
52643;DHT22;38531;53.296;6.614;2023-04-03T12:07:02;11.20;79.00
52643;DHT22;38531;53.296;6.614;2023-04-03T12:12:24;11.10;80.00
52643;DHT22;38531;53.296;6.614;2023-04-03T12:14:51;11.20;80.00
52643;DHT22;38531;53.296;6.614;2023-04-03T12:17:27;11.60;80.30
52643;DHT22;38531;53.296;6.614;2023-04-03T12:19:52;11.30;80.10
52643;DHT22;38531;53.296;6.614;2023-04-03T12:22:20;11.50;80.50
52643;DHT22;38531;53.296;6.614;2023-04-03T12:24:51;11.50;79.90
52643;DHT22;38531;53.296;6.614;2023-04-03T12:27:34;11.60;76.10
52643;DHT22;38531;53.296;6.614;2023-04-03T12:40:43;11.90;76.90
52643;DHT22;38531;53.296;6.614;2023-04-03T12:46:02;11.90;76.10
52643;DHT22;38531;53.296;6.614;2023-04-03T12:48:30;11.70;79.20
52643;DHT22;38531;53.296;6.614;2023-04-03T12:50:58;12.00;78.50
52643;DHT22;38531;53.296;6.614;2023-04-03T12:53:31;12.10;78.70
52643;DHT22;38531;53.296;6.614;2023-04-03T12:56:19;12.30;82.90
52643;DHT22;38531;53.296;6.614;2023-04-03T12:58:50;12.40;78.40
52643;DHT22;38531;53.296;6.614;2023-04-03T13:01:20;12.30;76.10
52643;DHT22;38531;53.296;6.614;2023-04-03T13:03:55;12.30;76.10
52643;DHT22;38531;53.296;6.614;2023-04-03T13:06:40;12.30;75.50
52643;DHT22;38531;53.296;6.614;2023-04-03T13:11:44;12.30;76.50
52643;DHT22;38531;53.296;6.614;2023-04-03T13:14:19;12.50;77.20
52643;DHT22;38531;53.296;6.614;2023-04-03T13:17:15;12.60;78.30
52643;DHT22;38531;53.296;6.614;2023-04-03T13:19:43;12.40;75.90
52643;DHT22;38531;53.296;6.614;2023-04-03T13:23:04;12.60;78.90
52643;DHT22;38531;53.296;6.614;2023-04-03T13:25:34;12.30;80.70
52643;DHT22;38531;53.296;6.614;2023-04-03T13:28:01;12.20;80.70
52643;DHT22;38531;53.296;6.614;2023-04-03T13:30:31;12.20;81.00
52643;DHT22;38531;53.296;6.614;2023-04-03T13:33:01;12.30;83.00
52643;DHT22;38531;53.296;6.614;2023-04-03T13:35:39;12.40;84.10
52643;DHT22;38531;53.296;6.614;2023-04-03T13:38:23;11.70;80.50
52643;DHT22;38531;53.296;6.614;2023-04-03T13:40:58;11.40;81.90
52643;DHT22;38531;53.296;6.614;2023-04-03T13:43:31;11.30;82.40
52643;DHT22;38531;53.296;6.614;2023-04-03T13:46:19;11.40;84.40
52643;DHT22;38531;53.296;6.614;2023-04-03T13:48:50;11.50;84.40
52643;DHT22;38531;53.296;6.614;2023-04-03T13:51:23;11.80;83.30
52643;DHT22;38531;53.296;6.614;2023-04-03T13:53:58;11.90;85.40
52643;DHT22;38531;53.296;6.614;2023-04-03T14:04:23;11.90;83.50
52643;DHT22;38531;53.296;6.614;2023-04-03T14:06:49;12.10;85.30
52643;DHT22;38531;53.296;6.614;2023-04-03T14:09:17;12.20;83.60
52643;DHT22;38531;53.296;6.614;2023-04-03T14:11:44;12.10;82.30
52643;DHT22;38531;53.296;6.614;2023-04-03T14:14:16;12.00;81.50
52643;DHT22;38531;53.296;6.614;2023-04-03T14:16:47;11.90;82.70
52643;DHT22;38531;53.296;6.614;2023-04-03T14:19:31;12.00;83.20
52643;DHT22;38531;53.296;6.614;2023-04-03T14:21:58;12.00;82.10
52643;DHT22;38531;53.296;6.614;2023-04-03T14:24:24;11.70;84.80
52643;DHT22;38531;53.296;6.614;2023-04-03T14:26:52;11.70;84.10
52643;DHT22;38531;53.296;6.614;2023-04-03T14:29:19;11.70;83.90
52643;DHT22;38531;53.296;6.614;2023-04-03T14:31:47;11.50;84.60
52643;DHT22;38531;53.296;6.614;2023-04-03T14:34:14;11.90;84.50
52643;DHT22;38531;53.296;6.614;2023-04-03T14:36:42;11.50;83.50
52643;DHT22;38531;53.296;6.614;2023-04-03T14:39:11;11.50;86.80
52643;DHT22;38531;53.296;6.614;2023-04-03T14:41:41;11.80;86.40
52643;DHT22;38531;53.296;6.614;2023-04-03T14:44:07;11.70;87.20
52643;DHT22;38531;53.296;6.614;2023-04-03T14:46:36;11.60;85.60
52643;DHT22;38531;53.296;6.614;2023-04-03T14:49:03;11.30;84.60
52643;DHT22;38531;53.296;6.614;2023-04-03T14:51:33;10.90;82.30
52643;DHT22;38531;53.296;6.614;2023-04-03T14:53:59;10.80;82.50
52643;DHT22;38531;53.296;6.614;2023-04-03T14:56:28;10.70;83.20
52643;DHT22;38531;53.296;6.614;2023-04-03T14:59:00;10.30;81.80
52643;DHT22;38531;53.296;6.614;2023-04-03T15:01:27;10.00;81.90
52643;DHT22;38531;53.296;6.614;2023-04-03T15:03:53;10.40;83.10
52643;DHT22;38531;53.296;6.614;2023-04-03T15:06:19;10.00;86.10
52643;DHT22;38531;53.296;6.614;2023-04-03T15:08:46;10.10;83.70
52643;DHT22;38531;53.296;6.614;2023-04-03T15:11:15;10.10;83.90
52643;DHT22;38531;53.296;6.614;2023-04-03T15:13:41;10.00;82.50
52643;DHT22;38531;53.296;6.614;2023-04-03T15:16:25;10.00;84.00
52643;DHT22;38531;53.296;6.614;2023-04-03T15:18:51;9.90;83.80
52643;DHT22;38531;53.296;6.614;2023-04-03T15:21:17;9.80;83.30
52643;DHT22;38531;53.296;6.614;2023-04-03T15:23:42;9.80;83.40
52643;DHT22;38531;53.296;6.614;2023-04-03T15:26:08;9.60;85.30
52643;DHT22;38531;53.296;6.614;2023-04-03T15:28:41;9.90;86.80
52643;DHT22;38531;53.296;6.614;2023-04-03T15:31:08;9.40;89.60
52643;DHT22;38531;53.296;6.614;2023-04-03T15:33:34;9.60;85.80
52643;DHT22;38531;53.296;6.614;2023-04-03T15:36:01;9.40;86.90
52643;DHT22;38531;53.296;6.614;2023-04-03T15:38:27;9.00;87.90
52643;DHT22;38531;53.296;6.614;2023-04-03T15:40:54;8.90;89.70
52643;DHT22;38531;53.296;6.614;2023-04-03T15:43:20;8.80;89.80
52643;DHT22;38531;53.296;6.614;2023-04-03T15:45:48;8.90;90.80
52643;DHT22;38531;53.296;6.614;2023-04-03T15:48:14;8.60;90.60
52643;DHT22;38531;53.296;6.614;2023-04-03T15:50:41;8.60;90.90
52643;DHT22;38531;53.296;6.614;2023-04-03T15:53:07;8.50;90.30
52643;DHT22;38531;53.296;6.614;2023-04-03T15:55:42;8.60;90.90
52643;DHT22;38531;53.296;6.614;2023-04-03T15:58:21;8.40;92.00
52643;DHT22;38531;53.296;6.614;2023-04-03T16:01:43;8.50;91.40
52643;DHT22;38531;53.296;6.614;2023-04-03T16:04:21;8.30;90.60
52643;DHT22;38531;53.296;6.614;2023-04-03T16:07:05;8.10;90.90
52643;DHT22;38531;53.296;6.614;2023-04-03T16:10:08;8.00;91.40
52643;DHT22;38531;53.296;6.614;2023-04-03T16:12:34;8.00;92.20
52643;DHT22;38531;53.296;6.614;2023-04-03T16:15:00;8.50;92.50
52643;DHT22;38531;53.296;6.614;2023-04-03T16:17:29;7.90;93.20
52643;DHT22;38531;53.296;6.614;2023-04-03T16:19:55;7.70;93.40
52643;DHT22;38531;53.296;6.614;2023-04-03T16:22:23;7.90;92.80
52643;DHT22;38531;53.296;6.614;2023-04-03T16:24:50;8.10;93.50
52643;DHT22;38531;53.296;6.614;2023-04-03T16:27:16;8.20;93.90
52643;DHT22;38531;53.296;6.614;2023-04-03T16:29:41;7.30;93.10
52643;DHT22;38531;53.296;6.614;2023-04-03T16:32:08;7.80;93.40
52643;DHT22;38531;53.296;6.614;2023-04-03T16:34:34;7.60;93.70
52643;DHT22;38531;53.296;6.614;2023-04-03T16:37:00;7.50;94.80
52643;DHT22;38531;53.296;6.614;2023-04-03T16:39:26;7.50;95.50
52643;DHT22;38531;53.296;6.614;2023-04-03T16:41:52;7.70;95.90
52643;DHT22;38531;53.296;6.614;2023-04-03T16:44:17;7.70;96.60
52643;DHT22;38531;53.296;6.614;2023-04-03T16:46:43;7.40;97.10
52643;DHT22;38531;53.296;6.614;2023-04-03T16:49:09;7.90;97.00
52643;DHT22;38531;53.296;6.614;2023-04-03T16:51:37;7.20;97.30
52643;DHT22;38531;53.296;6.614;2023-04-03T16:54:03;8.00;98.60
52643;DHT22;38531;53.296;6.614;2023-04-03T16:56:29;7.10;97.40
52643;DHT22;38531;53.296;6.614;2023-04-03T16:58:55;7.50;97.90
52643;DHT22;38531;53.296;6.614;2023-04-03T17:01:23;7.00;97.80
52643;DHT22;38531;53.296;6.614;2023-04-03T17:03:50;7.00;98.30
52643;DHT22;38531;53.296;6.614;2023-04-03T17:06:24;6.90;99.60
52643;DHT22;38531;53.296;6.614;2023-04-03T17:08:51;6.80;99.90
52643;DHT22;38531;53.296;6.614;2023-04-03T17:11:18;6.70;99.90
52643;DHT22;38531;53.296;6.614;2023-04-03T17:13:44;6.70;99.90